»·PEaware :: N900HE KSNA-KAVX

N900HE :: KSNA-KAVX

FLIGHT INFORMATION

Flight Status: Arrived
Operator: Privately registered:
United States
More flights under this callsign
Pilot: Heigo T. (17565)
Aircraft: SOCATA TBM-900
(TBM9)
More flights by this aircraft type
Origin: KSNA John Wayne-Orange Co
United States
Destination: KAVX Catalina
United States
More flights between these airports :: More routes between these airports
Route: SLI V21 SXC
File this flight plan on PilotEdge
Remarks: I7
Altitude:
(Current/Filed)
4,000ft
Speed:
(Current/Filed)
150kts
Departed: 16-Jan-20 01:00 PM
Arrived: 16-Jan-20 01:23 PM
Distance/Time
Traveled:
32nm/0:23
Distance/Time
To Go:
Arrived

Flight Plot

Page will automatically refresh every two minutes.


Map Options




Map Legend


Flown Route
Filed Route
Departure Airport
Arrival Airport
Navaid (VOR, NDB)
Fix

Horizontal Profiles

Position Reports

Time Latitude Longitude Heading Altitude Ground
Speed
16-Jan-20 12:43 33.665890 -117.873100 220 59ft 0kts
16-Jan-20 12:44 33.665890 -117.873100 220 59ft 0kts
16-Jan-20 12:45 33.665890 -117.873100 220 59ft 0kts
16-Jan-20 12:46 33.665890 -117.873100 220 59ft 0kts
16-Jan-20 12:47 33.665890 -117.873100 220 59ft 0kts
16-Jan-20 12:48 33.665890 -117.873100 220 59ft 0kts
16-Jan-20 12:49 33.665890 -117.873100 220 59ft 0kts
16-Jan-20 12:50 33.665890 -117.873100 220 59ft 0kts
16-Jan-20 12:51 33.665890 -117.873100 220 59ft 0kts
16-Jan-20 12:52 33.665890 -117.873100 220 59ft 0kts
16-Jan-20 12:53 33.667641 -117.872450 42 59ft 16kts
16-Jan-20 12:54 33.671283 -117.868773 38 59ft 15kts
16-Jan-20 12:55 33.673720 -117.867189 323 59ft 8kts
16-Jan-20 12:56 33.677125 -117.865203 27 59ft 17kts
16-Jan-20 12:57 33.680228 -117.864253 297 59ft 4kts
16-Jan-20 12:58 33.680498 -117.864830 299 59ft 2kts
16-Jan-20 12:59 33.668863 -117.873148 209 492ft 117kts
16-Jan-20 13:01 33.644892 -117.906688 231 1994ft 140kts
16-Jan-20 13:02 33.619977 -117.947107 231 1987ft 151kts
16-Jan-20 13:03 33.594056 -117.989153 231 1984ft 153kts
16-Jan-20 13:04 33.572376 -118.029493 238 2896ft 127kts
16-Jan-20 13:05 33.554215 -118.065459 237 3996ft 133kts
16-Jan-20 13:06 33.532694 -118.107846 237 3984ft 150kts
16-Jan-20 13:07 33.510571 -118.150858 237 3984ft 151kts
16-Jan-20 13:08 33.489454 -118.194683 241 3983ft 152kts
16-Jan-20 13:09 33.467444 -118.237910 236 3983ft 152kts
16-Jan-20 13:10 33.444281 -118.280425 237 3982ft 151kts
16-Jan-20 13:11 33.423240 -118.322433 239 3968ft 136kts
16-Jan-20 13:12 33.406141 -118.358425 240 3975ft 118kts
16-Jan-20 13:13 33.388318 -118.396022 240 3988ft 136kts
16-Jan-20 13:14 33.393837 -118.430927 358 3978ft 152kts
16-Jan-20 13:15 33.433108 -118.412435 3 3987ft 152kts
16-Jan-20 13:16 33.473510 -118.413700 319 3860ft 147kts
16-Jan-20 13:17 33.507148 -118.444198 319 3403ft 152kts
16-Jan-20 13:18 33.527614 -118.429400 123 3402ft 126kts
16-Jan-20 13:19 33.498854 -118.401442 185 3380ft 145kts
16-Jan-20 13:20 33.460662 -118.405894 189 2736ft 146kts
16-Jan-20 13:21 33.429670 -118.403339 158 2072ft 99kts
16-Jan-20 13:21 33.410059 -118.401978 251 2042ft 92kts
16-Jan-20 13:23 33.403678 -118.416692 118 1569ft 10kts
16-Jan-20 13:23 33.403132 -118.415890 10 1569ft 0kts
16-Jan-20 13:24 33.403132 -118.415890 10 1569ft 0kts
16-Jan-20 13:26 33.403132 -118.415890 10 1569ft 0kts
16-Jan-20 13:26 33.403132 -118.415890 10 1569ft 0kts
16-Jan-20 13:27 33.403132 -118.415890 10 1569ft 0kts
16-Jan-20 13:28 33.403132 -118.415890 10 1569ft 0kts
16-Jan-20 13:29 33.403132 -118.415890 10 1569ft 0kts
16-Jan-20 13:30 33.403132 -118.415890 10 1569ft 0kts
16-Jan-20 13:31 33.403132 -118.415890 10 1569ft 0kts
16-Jan-20 13:32 33.403132 -118.415890 10 1569ft 0kts
16-Jan-20 13:33 33.403132 -118.415890 10 1569ft 0kts
16-Jan-20 13:34 33.403132 -118.415890 10 1569ft 0kts
16-Jan-20 13:35 33.403132 -118.415890 10 1569ft 0kts
16-Jan-20 13:36 33.403132 -118.415890 10 1569ft 0kts

Navigation Log

Ident Type
Flight plan parsing failed, navigation log unavailable